sensor_id;sensor_type;location;lat;lon;timestamp;temperature;humidity
11399;DHT22;5755;48.116;11.608;2023-06-14T04:34:26;11.80;75.00
11399;DHT22;5755;48.116;11.608;2023-06-14T04:36:55;11.90;75.10
11399;DHT22;5755;48.116;11.608;2023-06-14T04:39:24;12.00;74.80
11399;DHT22;5755;48.116;11.608;2023-06-14T04:42:30;12.10;75.30
11399;DHT22;5755;48.116;11.608;2023-06-14T04:45:34;12.00;75.10
11399;DHT22;5755;48.116;11.608;2023-06-14T04:48:02;12.00;73.80
11399;DHT22;5755;48.116;11.608;2023-06-14T04:50:31;12.00;72.60
11399;DHT22;5755;48.116;11.608;2023-06-14T04:52:59;12.00;75.20
11399;DHT22;5755;48.116;11.608;2023-06-14T04:55:26;11.90;72.60
11399;DHT22;5755;48.116;11.608;2023-06-14T04:57:55;12.00;69.70
11399;DHT22;5755;48.116;11.608;2023-06-14T05:00:22;12.20;68.30
11399;DHT22;5755;48.116;11.608;2023-06-14T05:03:05;12.20;69.40
11399;DHT22;5755;48.116;11.608;2023-06-14T05:47:38;15.80;30.00
11399;DHT22;5755;48.116;11.608;2023-06-14T05:57:32;17.20;23.80
11399;DHT22;5755;48.116;11.608;2023-06-14T06:31:41;15.90;28.60
11399;DHT22;5755;48.116;11.608;2023-06-14T07:52:20;19.20;19.50
11399;DHT22;5755;48.116;11.608;2023-06-14T07:55:07;19.30;18.60
11399;DHT22;5755;48.116;11.608;2023-06-14T07:58:07;19.60;16.80
11399;DHT22;5755;48.116;11.608;2023-06-14T08:00:41;19.70;16.00
11399;DHT22;5755;48.116;11.608;2023-06-14T08:03:29;19.60;16.90
11399;DHT22;5755;48.116;11.608;2023-06-14T08:09:16;20.20;16.20
11399;DHT22;5755;48.116;11.608;2023-06-14T08:15:28;20.50;14.70
11399;DHT22;5755;48.116;11.608;2023-06-14T08:18:10;21.10;13.90
11399;DHT22;5755;48.116;11.608;2023-06-14T08:20:37;22.70;11.70
11399;DHT22;5755;48.116;11.608;2023-06-14T08:23:05;24.70;8.20
11399;DHT22;5755;48.116;11.608;2023-06-14T08:25:35;26.60;5.30
11399;DHT22;5755;48.116;11.608;2023-06-14T08:28:05;27.70;3.10
11399;DHT22;5755;48.116;11.608;2023-06-14T08:30:33;28.40;2.90
11399;DHT22;5755;48.116;11.608;2023-06-14T08:33:00;29.00;1.40
11399;DHT22;5755;48.116;11.608;2023-06-14T08:35:27;29.80;1.00
11399;DHT22;5755;48.116;11.608;2023-06-14T08:37:54;29.90;1.00
11399;DHT22;5755;48.116;11.608;2023-06-14T08:47:51;29.70;1.00
11399;DHT22;5755;48.116;11.608;2023-06-14T08:53:56;32.30;1.00
11399;DHT22;5755;48.116;11.608;2023-06-14T08:56:26;32.10;1.00
11399;DHT22;5755;48.116;11.608;2023-06-14T08:59:08;31.30;1.00
11399;DHT22;5755;48.116;11.608;2023-06-14T09:01:37;30.80;1.00
11399;DHT22;5755;48.116;11.608;2023-06-14T09:04:06;30.20;1.00
11399;DHT22;5755;48.116;11.608;2023-06-14T09:06:34;30.00;1.00
11399;DHT22;5755;48.116;11.608;2023-06-14T09:09:02;29.60;1.00
11399;DHT22;5755;48.116;11.608;2023-06-14T09:14:51;29.70;1.00
11399;DHT22;5755;48.116;11.608;2023-06-14T09:18:01;30.00;1.00
11399;DHT22;5755;48.116;11.608;2023-06-14T09:37:13;28.60;1.00
11399;DHT22;5755;48.116;11.608;2023-06-14T09:39:54;27.50;4.50
11399;DHT22;5755;48.116;11.608;2023-06-14T09:42:55;27.80;1.30
11399;DHT22;5755;48.116;11.608;2023-06-14T09:45:24;28.00;2.20
11399;DHT22;5755;48.116;11.608;2023-06-14T09:47:56;28.70;1.00
11399;DHT22;5755;48.116;11.608;2023-06-14T09:57:29;31.20;1.00
11399;DHT22;5755;48.116;11.608;2023-06-14T10:03:34;29.90;1.00
11399;DHT22;5755;48.116;11.608;2023-06-14T10:06:03;29.40;1.40
11399;DHT22;5755;48.116;11.608;2023-06-14T10:09:36;29.00;1.00
11399;DHT22;5755;48.116;11.608;2023-06-14T10:12:28;29.80;1.00
11399;DHT22;5755;48.116;11.608;2023-06-14T10:14:55;31.20;1.00
11399;DHT22;5755;48.116;11.608;2023-06-14T10:17:30;31.50;1.00
11399;DHT22;5755;48.116;11.608;2023-06-14T10:20:27;30.60;1.00
11399;DHT22;5755;48.116;11.608;2023-06-14T10:23:13;30.00;1.00
11399;DHT22;5755;48.116;11.608;2023-06-14T10:25:49;29.50;1.00
11399;DHT22;5755;48.116;11.608;2023-06-14T10:29:13;28.60;1.50
11399;DHT22;5755;48.116;11.608;2023-06-14T10:31:42;28.90;1.00
11399;DHT22;5755;48.116;11.608;2023-06-14T10:34:10;28.10;1.00
11399;DHT22;5755;48.116;11.608;2023-06-14T10:36:41;27.20;1.70
11399;DHT22;5755;48.116;11.608;2023-06-14T10:39:22;26.70;4.30
11399;DHT22;5755;48.116;11.608;2023-06-14T10:41:54;26.90;1.60
11399;DHT22;5755;48.116;11.608;2023-06-14T10:44:41;26.00;3.10
11399;DHT22;5755;48.116;11.608;2023-06-14T10:47:10;25.30;4.70
11399;DHT22;5755;48.116;11.608;2023-06-14T10:49:43;25.00;6.10
11399;DHT22;5755;48.116;11.608;2023-06-14T10:52:14;24.80;5.90
11399;DHT22;5755;48.116;11.608;2023-06-14T10:55:11;24.90;9.10
11399;DHT22;5755;48.116;11.608;2023-06-14T11:01:35;27.10;3.70
11399;DHT22;5755;48.116;11.608;2023-06-14T11:10:35;26.90;6.20
11399;DHT22;5755;48.116;11.608;2023-06-14T11:13:04;26.50;6.40
11399;DHT22;5755;48.116;11.608;2023-06-14T11:15:31;26.20;5.10
11399;DHT22;5755;48.116;11.608;2023-06-14T11:18:13;26.00;8.40
11399;DHT22;5755;48.116;11.608;2023-06-14T11:20:46;25.70;7.00
11399;DHT22;5755;48.116;11.608;2023-06-14T11:23:15;25.80;5.60
11399;DHT22;5755;48.116;11.608;2023-06-14T11:25:42;25.70;6.80
11399;DHT22;5755;48.116;11.608;2023-06-14T11:28:09;25.30;7.40
11399;DHT22;5755;48.116;11.608;2023-06-14T11:30:35;25.50;5.20
11399;DHT22;5755;48.116;11.608;2023-06-14T11:33:02;25.50;6.60
11399;DHT22;5755;48.116;11.608;2023-06-14T11:35:30;25.40;6.40
11399;DHT22;5755;48.116;11.608;2023-06-14T11:37:59;25.20;7.30
11399;DHT22;5755;48.116;11.608;2023-06-14T11:40:33;25.20;6.10
11399;DHT22;5755;48.116;11.608;2023-06-14T11:43:01;24.90;5.90
11399;DHT22;5755;48.116;11.608;2023-06-14T11:45:29;24.80;8.20
11399;DHT22;5755;48.116;11.608;2023-06-14T11:47:57;24.90;5.70
11399;DHT22;5755;48.116;11.608;2023-06-14T11:50:25;24.80;5.40
11399;DHT22;5755;48.116;11.608;2023-06-14T11:52:53;24.30;6.00
11399;DHT22;5755;48.116;11.608;2023-06-14T11:55:21;24.10;6.30
11399;DHT22;5755;48.116;11.608;2023-06-14T11:57:49;24.30;9.10
11399;DHT22;5755;48.116;11.608;2023-06-14T12:00:17;24.50;6.00
11399;DHT22;5755;48.116;11.608;2023-06-14T12:02:53;24.50;6.80
11399;DHT22;5755;48.116;11.608;2023-06-14T12:05:34;24.70;5.70
11399;DHT22;5755;48.116;11.608;2023-06-14T12:08:02;25.00;6.20
11399;DHT22;5755;48.116;11.608;2023-06-14T12:10:44;25.10;6.30
11399;DHT22;5755;48.116;11.608;2023-06-14T12:13:12;25.20;5.30
11399;DHT22;5755;48.116;11.608;2023-06-14T12:15:41;25.50;4.80
11399;DHT22;5755;48.116;11.608;2023-06-14T12:18:10;25.80;4.90
11399;DHT22;5755;48.116;11.608;2023-06-14T12:20:58;25.40;4.80
11399;DHT22;5755;48.116;11.608;2023-06-14T12:23:45;24.70;5.80
11399;DHT22;5755;48.116;11.608;2023-06-14T12:26:16;24.20;6.50
11399;DHT22;5755;48.116;11.608;2023-06-14T12:28:46;24.10;6.80
11399;DHT22;5755;48.116;11.608;2023-06-14T12:31:15;24.40;6.50
11399;DHT22;5755;48.116;11.608;2023-06-14T12:33:42;24.60;7.20
11399;DHT22;5755;48.116;11.608;2023-06-14T12:36:11;24.70;7.30
11399;DHT22;5755;48.116;11.608;2023-06-14T12:38:38;24.80;6.70
11399;DHT22;5755;48.116;11.608;2023-06-14T12:41:05;24.80;6.40
11399;DHT22;5755;48.116;11.608;2023-06-14T12:43:33;24.90;6.40
11399;DHT22;5755;48.116;11.608;2023-06-14T12:46:01;24.90;5.80
11399;DHT22;5755;48.116;11.608;2023-06-14T12:48:28;25.00;4.60
11399;DHT22;5755;48.116;11.608;2023-06-14T12:50:56;25.00;4.60
11399;DHT22;5755;48.116;11.608;2023-06-14T12:53:24;25.10;4.60
11399;DHT22;5755;48.116;11.608;2023-06-14T12:55:51;25.10;6.00
11399;DHT22;5755;48.116;11.608;2023-06-14T12:58:18;25.10;5.10
11399;DHT22;5755;48.116;11.608;2023-06-14T13:00:45;24.60;6.20
11399;DHT22;5755;48.116;11.608;2023-06-14T13:03:13;23.90;7.20
11399;DHT22;5755;48.116;11.608;2023-06-14T13:05:41;23.80;7.30
11399;DHT22;5755;48.116;11.608;2023-06-14T13:08:08;23.70;6.20
11399;DHT22;5755;48.116;11.608;2023-06-14T13:10:35;23.80;7.20
11399;DHT22;5755;48.116;11.608;2023-06-14T13:13:02;23.60;7.10
11399;DHT22;5755;48.116;11.608;2023-06-14T13:15:30;23.70;7.20
11399;DHT22;5755;48.116;11.608;2023-06-14T13:17:57;23.90;6.20
11399;DHT22;5755;48.116;11.608;2023-06-14T13:20:39;24.10;6.30
11399;DHT22;5755;48.116;11.608;2023-06-14T13:23:06;24.20;5.20
11399;DHT22;5755;48.116;11.608;2023-06-14T13:25:34;24.30;6.50
11399;DHT22;5755;48.116;11.608;2023-06-14T13:28:01;24.50;6.00
11399;DHT22;5755;48.116;11.608;2023-06-14T13:30:28;24.70;4.70
11399;DHT22;5755;48.116;11.608;2023-06-14T13:32:55;24.60;5.60
11399;DHT22;5755;48.116;11.608;2023-06-14T13:35:23;24.50;5.40
11399;DHT22;5755;48.116;11.608;2023-06-14T13:37:51;24.10;6.20
11399;DHT22;5755;48.116;11.608;2023-06-14T13:40:19;23.50;6.30
11399;DHT22;5755;48.116;11.608;2023-06-14T13:42:47;23.00;7.40
11399;DHT22;5755;48.116;11.608;2023-06-14T13:45:20;22.60;7.30
11399;DHT22;5755;48.116;11.608;2023-06-14T13:47:47;22.40;6.40
11399;DHT22;5755;48.116;11.608;2023-06-14T13:50:15;22.50;7.80
11399;DHT22;5755;48.116;11.608;2023-06-14T13:52:47;22.90;6.30
11399;DHT22;5755;48.116;11.608;2023-06-14T13:55:16;23.30;7.70
11399;DHT22;5755;48.116;11.608;2023-06-14T13:57:43;23.70;5.50
11399;DHT22;5755;48.116;11.608;2023-06-14T14:00:11;23.80;6.10
11399;DHT22;5755;48.116;11.608;2023-06-14T14:02:39;24.00;5.90
11399;DHT22;5755;48.116;11.608;2023-06-14T14:05:08;24.20;5.00
11399;DHT22;5755;48.116;11.608;2023-06-14T14:07:36;24.30;5.40
11399;DHT22;5755;48.116;11.608;2023-06-14T14:10:04;24.20;4.40
11399;DHT22;5755;48.116;11.608;2023-06-14T14:12:33;24.30;4.40
11399;DHT22;5755;48.116;11.608;2023-06-14T14:15:05;24.20;4.10
11399;DHT22;5755;48.116;11.608;2023-06-14T14:17:33;24.20;4.10
11399;DHT22;5755;48.116;11.608;2023-06-14T14:20:00;24.30;4.10
11399;DHT22;5755;48.116;11.608;2023-06-14T14:25:56;24.20;5.90
11399;DHT22;5755;48.116;11.608;2023-06-14T14:28:25;24.20;4.60
11399;DHT22;5755;48.116;11.608;2023-06-14T14:30:52;24.10;4.70
11399;DHT22;5755;48.116;11.608;2023-06-14T14:33:21;23.70;5.40
11399;DHT22;5755;48.116;11.608;2023-06-14T14:35:48;23.40;5.60
11399;DHT22;5755;48.116;11.608;2023-06-14T14:38:29;23.10;6.70
11399;DHT22;5755;48.116;11.608;2023-06-14T14:40:57;23.00;6.10
11399;DHT22;5755;48.116;11.608;2023-06-14T14:46:32;22.50;6.30
11399;DHT22;5755;48.116;11.608;2023-06-14T14:48:59;22.40;6.50
11399;DHT22;5755;48.116;11.608;2023-06-14T14:51:26;22.50;7.00
11399;DHT22;5755;48.116;11.608;2023-06-14T14:53:55;22.60;6.00
11399;DHT22;5755;48.116;11.608;2023-06-14T14:56:53;22.80;5.90
11399;DHT22;5755;48.116;11.608;2023-06-14T14:59:23;23.10;5.50
11399;DHT22;5755;48.116;11.608;2023-06-14T15:01:51;23.30;7.20
11399;DHT22;5755;48.116;11.608;2023-06-14T15:04:32;23.40;7.00
11399;DHT22;5755;48.116;11.608;2023-06-14T15:06:59;23.40;7.10
11399;DHT22;5755;48.116;11.608;2023-06-14T15:09:26;23.00;7.20
11399;DHT22;5755;48.116;11.608;2023-06-14T15:11:53;23.00;7.70
11399;DHT22;5755;48.116;11.608;2023-06-14T15:14:20;23.00;7.00
11399;DHT22;5755;48.116;11.608;2023-06-14T15:16:48;23.00;7.60
11399;DHT22;5755;48.116;11.608;2023-06-14T15:19:18;23.00;7.60
11399;DHT22;5755;48.116;11.608;2023-06-14T15:22:05;23.10;7.50
11399;DHT22;5755;48.116;11.608;2023-06-14T15:24:32;23.10;8.20
11399;DHT22;5755;48.116;11.608;2023-06-14T15:26:59;23.20;8.10
11399;DHT22;5755;48.116;11.608;2023-06-14T15:29:26;23.30;7.40
11399;DHT22;5755;48.116;11.608;2023-06-14T15:31:53;23.30;7.20
11399;DHT22;5755;48.116;11.608;2023-06-14T15:34:24;23.30;6.80
11399;DHT22;5755;48.116;11.608;2023-06-14T15:36:59;23.30;6.90
11399;DHT22;5755;48.116;11.608;2023-06-14T15:39:28;23.20;6.70
11399;DHT22;5755;48.116;11.608;2023-06-14T15:41:59;23.20;6.90
11399;DHT22;5755;48.116;11.608;2023-06-14T15:44:26;23.20;8.10
11399;DHT22;5755;48.116;11.608;2023-06-14T15:46:53;23.20;7.60
11399;DHT22;5755;48.116;11.608;2023-06-14T15:49:20;23.10;7.80
11399;DHT22;5755;48.116;11.608;2023-06-14T15:52:02;23.00;8.80
11399;DHT22;5755;48.116;11.608;2023-06-14T15:54:37;23.00;9.10
11399;DHT22;5755;48.116;11.608;2023-06-14T15:57:04;22.90;9.10
11399;DHT22;5755;48.116;11.608;2023-06-14T15:59:32;22.90;9.70
11399;DHT22;5755;48.116;11.608;2023-06-14T16:01:59;22.90;9.20
11399;DHT22;5755;48.116;11.608;2023-06-14T16:04:27;22.80;10.30
11399;DHT22;5755;48.116;11.608;2023-06-14T16:06:55;22.80;9.60
11399;DHT22;5755;48.116;11.608;2023-06-14T16:09:23;22.80;10.10
11399;DHT22;5755;48.116;11.608;2023-06-14T16:11:50;22.70;10.70
11399;DHT22;5755;48.116;11.608;2023-06-14T16:14:19;22.60;10.20
11399;DHT22;5755;48.116;11.608;2023-06-14T16:16:46;22.60;9.90
11399;DHT22;5755;48.116;11.608;2023-06-14T16:19:13;22.60;11.00
11399;DHT22;5755;48.116;11.608;2023-06-14T16:21:40;22.50;10.40
11399;DHT22;5755;48.116;11.608;2023-06-14T16:24:07;22.50;9.80
11399;DHT22;5755;48.116;11.608;2023-06-14T16:26:36;22.50;10.50
11399;DHT22;5755;48.116;11.608;2023-06-14T16:29:03;22.50;10.10
11399;DHT22;5755;48.116;11.608;2023-06-14T16:31:30;22.50;10.30
11399;DHT22;5755;48.116;11.608;2023-06-14T16:33:57;22.50;10.30
11399;DHT22;5755;48.116;11.608;2023-06-14T16:36:24;22.30;10.70
11399;DHT22;5755;48.116;11.608;2023-06-14T16:38:51;22.30;10.30
11399;DHT22;5755;48.116;11.608;2023-06-14T16:41:27;22.30;11.00
11399;DHT22;5755;48.116;11.608;2023-06-14T16:43:56;22.20;10.30
11399;DHT22;5755;48.116;11.608;2023-06-14T16:46:27;22.20;10.90
11399;DHT22;5755;48.116;11.608;2023-06-14T16:48:55;22.20;11.00
11399;DHT22;5755;48.116;11.608;2023-06-14T16:51:22;22.10;11.00
11399;DHT22;5755;48.116;11.608;2023-06-14T16:53:49;22.20;11.70
11399;DHT22;5755;48.116;11.608;2023-06-14T16:56:17;22.10;10.30
11399;DHT22;5755;48.116;11.608;2023-06-14T16:58:44;22.10;10.40
11399;DHT22;5755;48.116;11.608;2023-06-14T17:01:14;22.00;10.60
11399;DHT22;5755;48.116;11.608;2023-06-14T17:03:41;21.90;12.20
11399;DHT22;5755;48.116;11.608;2023-06-14T17:06:08;21.90;11.30
11399;DHT22;5755;48.116;11.608;2023-06-14T17:08:35;21.90;12.20
11399;DHT22;5755;48.116;11.608;2023-06-14T17:11:02;21.80;11.00
11399;DHT22;5755;48.116;11.608;2023-06-14T17:13:29;21.70;11.50
11399;DHT22;5755;48.116;11.608;2023-06-14T17:15:56;21.70;11.40
11399;DHT22;5755;48.116;11.608;2023-06-14T17:18:25;21.70;12.20
11399;DHT22;5755;48.116;11.608;2023-06-14T17:20:52;21.60;12.00
11399;DHT22;5755;48.116;11.608;2023-06-14T17:23:19;21.50;11.90
11399;DHT22;5755;48.116;11.608;2023-06-14T17:25:46;21.40;11.90
11399;DHT22;5755;48.116;11.608;2023-06-14T17:28:13;21.40;11.90
11399;DHT22;5755;48.116;11.608;2023-06-14T17:30:42;21.40;11.90
11399;DHT22;5755;48.116;11.608;2023-06-14T17:36:27;21.20;11.70
11399;DHT22;5755;48.116;11.608;2023-06-14T17:38:54;21.10;11.70
11399;DHT22;5755;48.116;11.608;2023-06-14T17:41:21;21.20;11.80
11399;DHT22;5755;48.116;11.608;2023-06-14T17:43:49;21.20;11.80
11399;DHT22;5755;48.116;11.608;2023-06-14T17:46:17;21.00;11.60
11399;DHT22;5755;48.116;11.608;2023-06-14T17:48:44;21.00;12.40
11399;DHT22;5755;48.116;11.608;2023-06-14T17:51:11;20.90;12.00
11399;DHT22;5755;48.116;11.608;2023-06-14T17:53:43;20.90;12.20
11399;DHT22;5755;48.116;11.608;2023-06-14T17:56:10;20.80;12.30
11399;DHT22;5755;48.116;11.608;2023-06-14T17:58:38;20.80;12.20
11399;DHT22;5755;48.116;11.608;2023-06-14T18:01:05;20.80;12.20
11399;DHT22;5755;48.116;11.608;2023-06-14T18:03:31;20.70;13.00
11399;DHT22;5755;48.116;11.608;2023-06-14T18:05:59;20.70;13.10
11399;DHT22;5755;48.116;11.608;2023-06-14T18:08:26;20.60;13.50
11399;DHT22;5755;48.116;11.608;2023-06-14T18:10:54;20.50;14.20
11399;DHT22;5755;48.116;11.608;2023-06-14T18:13:21;20.50;13.80
11399;DHT22;5755;48.116;11.608;2023-06-14T18:15:48;20.40;14.10
11399;DHT22;5755;48.116;11.608;2023-06-14T18:18:15;20.40;14.20
11399;DHT22;5755;48.116;11.608;2023-06-14T18:20:42;20.30;14.60
11399;DHT22;5755;48.116;11.608;2023-06-14T18:23:09;20.30;14.70
11399;DHT22;5755;48.116;11.608;2023-06-14T18:25:36;20.20;14.80
11399;DHT22;5755;48.116;11.608;2023-06-14T18:28:04;20.10;15.40
11399;DHT22;5755;48.116;11.608;2023-06-14T18:30:31;20.00;15.10
11399;DHT22;5755;48.116;11.608;2023-06-14T18:32:58;19.90;15.40
11399;DHT22;5755;48.116;11.608;2023-06-14T18:35:25;19.80;15.50
11399;DHT22;5755;48.116;11.608;2023-06-14T18:37:52;19.80;15.70
11399;DHT22;5755;48.116;11.608;2023-06-14T18:40:19;19.80;15.50
11399;DHT22;5755;48.116;11.608;2023-06-14T18:42:47;19.70;16.50
11399;DHT22;5755;48.116;11.608;2023-06-14T18:45:15;19.60;15.80
11399;DHT22;5755;48.116;11.608;2023-06-14T18:47:42;19.60;15.70
11399;DHT22;5755;48.116;11.608;2023-06-14T18:50:10;19.50;16.10
11399;DHT22;5755;48.116;11.608;2023-06-14T18:52:37;19.40;16.40
11399;DHT22;5755;48.116;11.608;2023-06-14T18:55:05;19.40;16.90
11399;DHT22;5755;48.116;11.608;2023-06-14T18:57:32;19.20;16.80
11399;DHT22;5755;48.116;11.608;2023-06-14T18:59:59;19.20;17.20
11399;DHT22;5755;48.116;11.608;2023-06-14T19:02:27;19.10;17.90
11399;DHT22;5755;48.116;11.608;2023-06-14T19:04:54;19.10;17.70
11399;DHT22;5755;48.116;11.608;2023-06-14T19:07:21;19.00;17.40
11399;DHT22;5755;48.116;11.608;2023-06-14T19:09:48;19.00;17.80
11399;DHT22;5755;48.116;11.608;2023-06-14T19:12:15;18.90;18.00
11399;DHT22;5755;48.116;11.608;2023-06-14T19:14:42;18.80;18.10
11399;DHT22;5755;48.116;11.608;2023-06-14T19:17:09;18.80;18.00
11399;DHT22;5755;48.116;11.608;2023-06-14T19:19:37;18.80;18.10
11399;DHT22;5755;48.116;11.608;2023-06-14T19:22:05;18.70;18.70
11399;DHT22;5755;48.116;11.608;2023-06-14T19:24:32;18.70;18.60
11399;DHT22;5755;48.116;11.608;2023-06-14T19:26:59;18.70;18.40
11399;DHT22;5755;48.116;11.608;2023-06-14T19:29:26;18.60;18.70
11399;DHT22;5755;48.116;11.608;2023-06-14T19:31:58;18.50;19.30
11399;DHT22;5755;48.116;11.608;2023-06-14T19:34:26;18.50;19.30
11399;DHT22;5755;48.116;11.608;2023-06-14T19:36:54;18.40;19.30
11399;DHT22;5755;48.116;11.608;2023-06-14T19:39:21;18.40;19.30
11399;DHT22;5755;48.116;11.608;2023-06-14T19:41:48;18.40;19.50
11399;DHT22;5755;48.116;11.608;2023-06-14T19:44:16;18.30;19.90
11399;DHT22;5755;48.116;11.608;2023-06-14T19:46:43;18.30;19.80
11399;DHT22;5755;48.116;11.608;2023-06-14T19:49:10;18.20;19.90
11399;DHT22;5755;48.116;11.608;2023-06-14T19:51:37;18.20;20.00
11399;DHT22;5755;48.116;11.608;2023-06-14T19:54:05;18.20;20.10
11399;DHT22;5755;48.116;11.608;2023-06-14T19:56:32;18.10;21.20
11399;DHT22;5755;48.116;11.608;2023-06-14T19:58:59;18.10;20.30
11399;DHT22;5755;48.116;11.608;2023-06-14T20:01:27;18.10;20.60
11399;DHT22;5755;48.116;11.608;2023-06-14T20:03:54;18.00;20.60
11399;DHT22;5755;48.116;11.608;2023-06-14T20:06:21;17.90;22.00
11399;DHT22;5755;48.116;11.608;2023-06-14T20:08:48;17.90;22.00
11399;DHT22;5755;48.116;11.608;2023-06-14T20:11:16;17.80;21.80
11399;DHT22;5755;48.116;11.608;2023-06-14T20:13:43;17.80;21.70
11399;DHT22;5755;48.116;11.608;2023-06-14T20:16:11;17.70;22.00
11399;DHT22;5755;48.116;11.608;2023-06-14T20:18:38;17.70;21.50
11399;DHT22;5755;48.116;11.608;2023-06-14T20:21:05;17.60;21.90
11399;DHT22;5755;48.116;11.608;2023-06-14T20:23:32;17.60;22.50
11399;DHT22;5755;48.116;11.608;2023-06-14T20:26:00;17.60;22.50
11399;DHT22;5755;48.116;11.608;2023-06-14T20:28:28;17.60;22.90
11399;DHT22;5755;48.116;11.608;2023-06-14T20:30:56;17.50;23.20
11399;DHT22;5755;48.116;11.608;2023-06-14T20:33:23;17.50;23.10
11399;DHT22;5755;48.116;11.608;2023-06-14T20:35:50;17.50;23.70
11399;DHT22;5755;48.116;11.608;2023-06-14T20:38:17;17.50;23.30
11399;DHT22;5755;48.116;11.608;2023-06-14T20:40:46;17.50;23.50
11399;DHT22;5755;48.116;11.608;2023-06-14T20:43:14;17.40;23.30
11399;DHT22;5755;48.116;11.608;2023-06-14T20:45:42;17.40;23.30
11399;DHT22;5755;48.116;11.608;2023-06-14T20:48:09;17.40;22.90
11399;DHT22;5755;48.116;11.608;2023-06-14T20:50:37;17.40;23.20
11399;DHT22;5755;48.116;11.608;2023-06-14T20:53:04;17.30;22.60
11399;DHT22;5755;48.116;11.608;2023-06-14T20:55:30;17.30;22.90
11399;DHT22;5755;48.116;11.608;2023-06-14T20:57:57;17.30;23.50
11399;DHT22;5755;48.116;11.608;2023-06-14T21:00:24;17.30;23.30
11399;DHT22;5755;48.116;11.608;2023-06-14T21:02:53;17.30;23.10
11399;DHT22;5755;48.116;11.608;2023-06-14T21:05:22;17.30;23.80
11399;DHT22;5755;48.116;11.608;2023-06-14T21:07:49;17.20;23.50
11399;DHT22;5755;48.116;11.608;2023-06-14T21:10:16;17.10;23.80
11399;DHT22;5755;48.116;11.608;2023-06-14T21:12:43;17.10;25.40
11399;DHT22;5755;48.116;11.608;2023-06-14T21:15:10;17.10;23.80
11399;DHT22;5755;48.116;11.608;2023-06-14T21:17:37;17.10;25.30
11399;DHT22;5755;48.116;11.608;2023-06-14T21:20:07;17.10;25.10
11399;DHT22;5755;48.116;11.608;2023-06-14T21:22:36;17.00;24.50
11399;DHT22;5755;48.116;11.608;2023-06-14T21:25:03;17.00;24.60
11399;DHT22;5755;48.116;11.608;2023-06-14T21:27:30;17.00;24.10
11399;DHT22;5755;48.116;11.608;2023-06-14T21:29:59;17.00;24.10
11399;DHT22;5755;48.116;11.608;2023-06-14T21:32:26;17.00;24.10
11399;DHT22;5755;48.116;11.608;2023-06-14T21:34:53;17.00;24.30
11399;DHT22;5755;48.116;11.608;2023-06-14T21:37:22;17.00;25.60
11399;DHT22;5755;48.116;11.608;2023-06-14T21:39:49;17.00;24.20
11399;DHT22;5755;48.116;11.608;2023-06-14T21:42:16;17.00;24.20
11399;DHT22;5755;48.116;11.608;2023-06-14T21:44:43;17.00;24.20
11399;DHT22;5755;48.116;11.608;2023-06-14T21:47:12;17.00;25.80
11399;DHT22;5755;48.116;11.608;2023-06-14T21:49:39;17.10;26.40
11399;DHT22;5755;48.116;11.608;2023-06-14T21:52:08;17.00;25.00
11399;DHT22;5755;48.116;11.608;2023-06-14T21:54:36;17.00;25.80
11399;DHT22;5755;48.116;11.608;2023-06-14T21:57:03;17.00;25.50
11399;DHT22;5755;48.116;11.608;2023-06-14T21:59:30;16.90;25.90
11399;DHT22;5755;48.116;11.608;2023-06-14T22:01:58;16.90;25.90
11399;DHT22;5755;48.116;11.608;2023-06-14T22:04:25;16.90;26.10
11399;DHT22;5755;48.116;11.608;2023-06-14T22:06:52;16.80;26.20
11399;DHT22;5755;48.116;11.608;2023-06-14T22:09:19;16.80;26.70
11399;DHT22;5755;48.116;11.608;2023-06-14T22:11:47;16.80;26.40
11399;DHT22;5755;48.116;11.608;2023-06-14T22:14:15;16.70;26.70
11399;DHT22;5755;48.116;11.608;2023-06-14T22:16:46;16.70;27.20
11399;DHT22;5755;48.116;11.608;2023-06-14T22:19:13;16.60;27.60
11399;DHT22;5755;48.116;11.608;2023-06-14T22:21:42;16.60;28.00
11399;DHT22;5755;48.116;11.608;2023-06-14T22:24:10;16.50;29.10
11399;DHT22;5755;48.116;11.608;2023-06-14T22:26:41;16.60;29.20
11399;DHT22;5755;48.116;11.608;2023-06-14T22:29:14;16.40;29.00
11399;DHT22;5755;48.116;11.608;2023-06-14T22:31:42;16.40;29.00
11399;DHT22;5755;48.116;11.608;2023-06-14T22:34:09;16.30;29.00
11399;DHT22;5755;48.116;11.608;2023-06-14T22:36:36;16.30;29.00
11399;DHT22;5755;48.116;11.608;2023-06-14T22:39:04;16.30;29.00
11399;DHT22;5755;48.116;11.608;2023-06-14T22:41:31;16.20;28.90
11399;DHT22;5755;48.116;11.608;2023-06-14T22:43:58;16.10;28.80
11399;DHT22;5755;48.116;11.608;2023-06-14T22:46:27;16.10;28.80
11399;DHT22;5755;48.116;11.608;2023-06-14T22:48:56;16.00;29.20
11399;DHT22;5755;48.116;11.608;2023-06-14T22:51:24;16.00;30.10
11399;DHT22;5755;48.116;11.608;2023-06-14T22:53:52;15.90;31.70
11399;DHT22;5755;48.116;11.608;2023-06-14T22:56:20;15.80;32.60
11399;DHT22;5755;48.116;11.608;2023-06-14T22:58:47;15.80;32.10
11399;DHT22;5755;48.116;11.608;2023-06-14T23:01:15;15.80;32.80
11399;DHT22;5755;48.116;11.608;2023-06-14T23:03:45;15.80;32.20
11399;DHT22;5755;48.116;11.608;2023-06-14T23:06:13;15.70;33.60
11399;DHT22;5755;48.116;11.608;2023-06-14T23:08:42;15.70;33.80
11399;DHT22;5755;48.116;11.608;2023-06-14T23:11:09;15.60;34.10
11399;DHT22;5755;48.116;11.608;2023-06-14T23:13:40;15.60;36.50
11399;DHT22;5755;48.116;11.608;2023-06-14T23:16:07;15.50;37.30
11399;DHT22;5755;48.116;11.608;2023-06-14T23:18:34;15.50;37.00
11399;DHT22;5755;48.116;11.608;2023-06-14T23:21:03;15.40;38.10
11399;DHT22;5755;48.116;11.608;2023-06-14T23:23:30;15.40;38.40
11399;DHT22;5755;48.116;11.608;2023-06-14T23:26:00;15.40;39.00
11399;DHT22;5755;48.116;11.608;2023-06-14T23:28:27;15.30;39.60
11399;DHT22;5755;48.116;11.608;2023-06-14T23:30:58;15.30;40.60
11399;DHT22;5755;48.116;11.608;2023-06-14T23:33:25;15.20;41.80
11399;DHT22;5755;48.116;11.608;2023-06-14T23:35:52;15.00;42.20
11399;DHT22;5755;48.116;11.608;2023-06-14T23:38:20;14.90;43.80
11399;DHT22;5755;48.116;11.608;2023-06-14T23:40:47;14.80;45.60
11399;DHT22;5755;48.116;11.608;2023-06-14T23:43:15;14.80;46.20
11399;DHT22;5755;48.116;11.608;2023-06-14T23:45:44;14.70;46.50
11399;DHT22;5755;48.116;11.608;2023-06-14T23:48:12;14.60;47.60
11399;DHT22;5755;48.116;11.608;2023-06-14T23:50:39;14.60;48.90
11399;DHT22;5755;48.116;11.608;2023-06-14T23:53:06;14.60;51.00
11399;DHT22;5755;48.116;11.608;2023-06-14T23:55:36;14.60;51.00
11399;DHT22;5755;48.116;11.608;2023-06-14T23:58:05;14.60;51.00
